Main page
METAR-TAF:

METAR-TAF

Airports :

Oban Airport

Oban, Scotland

latitude: 56-27-49N, longitude: 5-24-00W, elevation: 7 m

Current weather observation

The report was made 14 hours and 21 minutes ago, at 15:20 UTC
Wind 7 kt from the West/Southwest, varying between South/Southwest and West
Temperature 16°C
Humidity 72%
Pressure 1012 hPa
Visibility 10 km or more
Few clouds at a height of 2600 ft

METAR: EGEO 161520Z 24007KT 210V270 9999 FEW026 16/11 Q1012

Time: 06:41 (05:41 UTC)

Forecast

The report was made 15 hours and 44 minutes ago, at 13:57 UTC
Forecast valid from 16 at 15 UTC to 16 at 17 UTC
Wind 9 kt from the Southwest
Visibility 10 km or more
Few clouds at a height of 1500 ft
Scattered clouds at a height of 3000 ft

TAF: EGEO 161357Z 1615/1617 23009KT 9999 FEW015 SCT030

Weather observations and forecasts of more than 4000 airports (METAR and TAF reports).

The available stations are represented by yellow and red dots on the map.

Hover mouse over dot to see the name of the station.

Then click to see weather observations and forecasts.

To change the map : click on the green buttons with a black cross to zoom in, on the green button with a dash to zoom out, or on the green arrows for adjacent maps.


METAR-TAF: